createdAt,value
2023-03-31T00:01:57.887Z,19.17
2023-03-31T00:04:26.111Z,19.40
2023-03-31T00:06:54.611Z,20.92
2023-03-31T00:09:22.458Z,21.10
2023-03-31T00:11:50.075Z,20.13
2023-03-31T00:14:18.244Z,20.63
2023-03-31T00:16:45.986Z,21.02
2023-03-31T00:19:20.056Z,20.40
2023-03-31T00:21:48.187Z,20.83
2023-03-31T00:24:16.248Z,21.05
2023-03-31T00:26:43.508Z,20.58
2023-03-31T00:29:12.627Z,21.35
2023-03-31T00:31:39.765Z,22.67
2023-03-31T00:34:06.993Z,21.83
2023-03-31T00:36:36.893Z,23.38
2023-03-31T00:39:08.816Z,22.75
2023-03-31T00:41:37.283Z,23.23
2023-03-31T00:44:13.229Z,22.75
2023-03-31T00:46:43.144Z,22.25
2023-03-31T00:49:16.162Z,22.58
2023-03-31T00:51:43.752Z,20.10
2023-03-31T00:54:15.815Z,21.05
2023-03-31T00:56:48.137Z,21.27
2023-03-31T00:59:15.374Z,22.35
2023-03-31T01:01:46.503Z,23.65
2023-03-31T01:06:46.625Z,14.55
2023-03-31T01:09:14.734Z,14.02
2023-03-31T01:11:41.972Z,15.43
2023-03-31T01:14:10.531Z,16.63
2023-03-31T01:16:39.943Z,16.30
2023-03-31T01:19:12.847Z,18.33
2023-03-31T01:22:03.807Z,18.50
2023-03-31T01:24:47.316Z,18.55
2023-03-31T01:27:33.532Z,16.80
2023-03-31T01:30:00.608Z,20.33
2023-03-31T01:32:46.672Z,17.45
2023-03-31T01:35:13.758Z,16.63
2023-03-31T01:37:40.884Z,17.63
2023-03-31T01:40:09.780Z,18.73
2023-03-31T01:42:39.781Z,17.25
2023-03-31T01:45:13.126Z,16.45
2023-03-31T01:47:48.100Z,17.35
2023-03-31T01:50:22.483Z,15.40
2023-03-31T01:52:53.593Z,16.65
2023-03-31T01:55:25.755Z,15.75
2023-03-31T01:58:06.708Z,16.27
2023-03-31T02:00:37.234Z,17.02
2023-03-31T02:03:04.449Z,16.58
2023-03-31T02:05:34.605Z,18.30
2023-03-31T02:08:10.226Z,18.85
2023-03-31T02:10:37.669Z,20.63
2023-03-31T02:13:06.248Z,18.42
2023-03-31T02:15:39.096Z,19.55
2023-03-31T02:18:11.273Z,16.67
2023-03-31T02:20:42.931Z,17.88
2023-03-31T02:23:13.398Z,17.42
2023-03-31T02:25:48.118Z,17.17
2023-03-31T02:28:19.581Z,16.10
2023-03-31T02:30:50.123Z,16.65
2023-03-31T02:33:17.635Z,16.70
2023-03-31T02:35:44.742Z,18.48
2023-03-31T02:38:11.969Z,16.08
2023-03-31T02:40:39.081Z,16.65
2023-03-31T02:43:06.368Z,15.13
2023-03-31T02:45:45.672Z,16.52
2023-03-31T02:48:17.273Z,14.20
2023-03-31T02:51:07.734Z,14.65
2023-03-31T02:53:44.102Z,15.03
2023-03-31T02:56:17.574Z,13.15
2023-03-31T02:59:00.161Z,12.68
2023-03-31T03:01:46.582Z,12.20
2023-03-31T03:04:34.085Z,14.32
2023-03-31T03:07:12.759Z,12.07
2023-03-31T03:09:46.085Z,11.80
2023-03-31T03:12:18.895Z,11.10
2023-03-31T03:14:47.311Z,11.52
2023-03-31T03:17:14.424Z,11.70
2023-03-31T03:19:42.733Z,12.15
2023-03-31T03:22:10.335Z,13.35
2023-03-31T03:24:37.434Z,12.48
2023-03-31T03:27:08.252Z,12.80
2023-03-31T03:29:35.338Z,12.95
2023-03-31T03:32:02.426Z,13.55
2023-03-31T03:34:29.589Z,13.75
2023-03-31T03:36:56.678Z,14.45
2023-03-31T03:39:23.867Z,14.48
2023-03-31T03:41:51.098Z,15.02
2023-03-31T03:44:18.205Z,16.67
2023-03-31T03:46:45.499Z,17.80
2023-03-31T03:49:12.856Z,16.83
2023-03-31T03:51:40.196Z,16.67
2023-03-31T03:54:07.328Z,14.35
2023-03-31T03:56:34.598Z,14.55
2023-03-31T03:59:01.740Z,13.32
2023-03-31T04:01:28.841Z,12.90
2023-03-31T04:03:56.138Z,13.02
2023-03-31T04:06:24.389Z,12.18
2023-03-31T04:08:51.470Z,10.95
2023-03-31T04:11:19.656Z,12.05
2023-03-31T04:13:46.953Z,12.25
2023-03-31T04:16:14.414Z,11.48
2023-03-31T04:18:42.870Z,11.63
2023-03-31T04:21:12.318Z,11.10
2023-03-31T04:23:46.335Z,10.98
2023-03-31T04:26:14.403Z,10.85
2023-03-31T04:28:42.941Z,9.73
2023-03-31T04:31:10.714Z,10.13
2023-03-31T04:33:38.786Z,10.75
2023-03-31T04:36:18.619Z,10.57
2023-03-31T04:38:50.698Z,10.88
2023-03-31T04:41:18.319Z,11.02
2023-03-31T04:43:45.728Z,11.18
2023-03-31T04:46:12.970Z,11.48
2023-03-31T04:48:40.190Z,10.50
2023-03-31T04:51:07.788Z,11.48
2023-03-31T04:53:34.870Z,10.63
2023-03-31T04:56:02.346Z,11.82
2023-03-31T04:58:29.514Z,10.32
2023-03-31T05:00:56.733Z,10.70
2023-03-31T05:03:23.983Z,9.75
2023-03-31T05:05:51.277Z,10.20
2023-03-31T05:08:18.421Z,10.88
2023-03-31T05:10:45.570Z,9.95
2023-03-31T05:13:12.739Z,11.65
2023-03-31T05:15:40.551Z,10.88
2023-03-31T05:18:08.514Z,10.23
2023-03-31T05:20:36.281Z,10.13
2023-03-31T05:23:03.428Z,11.45
2023-03-31T05:25:33.060Z,11.00
2023-03-31T05:28:00.832Z,10.27
2023-03-31T05:30:28.107Z,11.98
2023-03-31T05:32:55.905Z,12.05
2023-03-31T05:35:23.475Z,11.93
2023-03-31T05:37:51.080Z,12.57
2023-03-31T05:40:18.311Z,14.45
2023-03-31T05:42:45.574Z,14.07
2023-03-31T05:45:12.855Z,13.43
2023-03-31T05:47:40.296Z,12.52
2023-03-31T05:50:09.175Z,11.68
2023-03-31T05:52:36.703Z,12.10
2023-03-31T05:55:04.611Z,9.98
2023-03-31T05:57:32.174Z,10.35
2023-03-31T05:59:59.358Z,11.18
2023-03-31T06:02:26.742Z,10.55
2023-03-31T06:04:54.176Z,10.10
2023-03-31T06:07:22.263Z,11.05
2023-03-31T06:09:49.382Z,13.18
2023-03-31T06:12:16.766Z,12.57
2023-03-31T06:14:43.866Z,12.50
2023-03-31T06:17:10.941Z,9.85
2023-03-31T06:19:38.341Z,10.20
2023-03-31T06:22:05.481Z,9.70
2023-03-31T06:24:32.636Z,10.50
2023-03-31T06:27:01.003Z,10.13
2023-03-31T06:29:28.728Z,10.63
2023-03-31T06:31:56.059Z,10.93
2023-03-31T06:34:23.438Z,10.82
2023-03-31T06:36:50.947Z,9.48
2023-03-31T06:39:18.068Z,9.88
2023-03-31T06:41:45.296Z,9.77
2023-03-31T06:44:12.481Z,9.77
2023-03-31T06:46:39.634Z,10.05
2023-03-31T06:49:06.827Z,9.25
2023-03-31T06:51:33.936Z,9.15
2023-03-31T06:54:01.050Z,9.60
2023-03-31T06:56:28.228Z,9.73
2023-03-31T06:58:55.308Z,10.40
2023-03-31T07:01:22.487Z,10.20
2023-03-31T07:03:49.735Z,10.45
2023-03-31T07:06:16.920Z,10.27
2023-03-31T07:08:44.154Z,9.88
2023-03-31T07:11:11.767Z,9.50
2023-03-31T07:13:38.925Z,9.10
2023-03-31T07:16:07.310Z,9.10
2023-03-31T07:18:35.473Z,9.75
2023-03-31T07:21:05.077Z,10.20
2023-03-31T07:23:34.536Z,10.05
2023-03-31T07:26:02.686Z,10.45
2023-03-31T07:28:30.830Z,10.93
2023-03-31T07:30:58.026Z,9.60
2023-03-31T07:33:25.207Z,9.95
2023-03-31T07:36:07.733Z,10.40
2023-03-31T07:38:38.617Z,11.07
2023-03-31T07:41:09.093Z,10.90
2023-03-31T07:46:05.740Z,9.93
2023-03-31T07:48:33.806Z,9.57
2023-03-31T07:51:01.548Z,9.43
2023-03-31T07:53:28.864Z,9.82
2023-03-31T07:55:56.227Z,9.77
2023-03-31T07:58:23.353Z,9.73
2023-03-31T08:00:50.872Z,9.90
2023-03-31T08:03:18.037Z,9.52
2023-03-31T08:05:45.211Z,9.27
2023-03-31T08:08:12.424Z,9.70
2023-03-31T08:10:39.533Z,9.43
2023-03-31T08:13:06.680Z,9.15
2023-03-31T08:15:33.938Z,8.85
2023-03-31T08:18:01.086Z,9.10
2023-03-31T08:20:28.218Z,10.23
2023-03-31T08:22:55.515Z,8.95
2023-03-31T08:25:23.731Z,8.75
2023-03-31T08:27:51.267Z,8.07
2023-03-31T08:30:19.391Z,7.88
2023-03-31T08:32:47.181Z,8.02
2023-03-31T08:35:14.376Z,7.78
2023-03-31T08:37:41.512Z,7.25
2023-03-31T08:40:12.512Z,7.30
2023-03-31T08:42:39.567Z,7.25
2023-03-31T08:45:10.058Z,7.00
2023-03-31T08:47:37.914Z,5.72
2023-03-31T08:50:07.738Z,6.78
2023-03-31T08:52:40.885Z,6.28
2023-03-31T08:55:09.105Z,5.95
2023-03-31T08:57:40.970Z,6.82
2023-03-31T09:00:15.069Z,5.85
2023-03-31T09:03:01.851Z,6.22
2023-03-31T09:05:49.092Z,6.45
2023-03-31T09:08:36.063Z,6.25
2023-03-31T09:11:23.484Z,6.38
2023-03-31T09:14:05.887Z,6.13
2023-03-31T09:16:38.215Z,6.40
2023-03-31T09:19:12.833Z,6.20
2023-03-31T09:21:41.642Z,6.45
2023-03-31T09:24:09.458Z,7.47
2023-03-31T09:26:42.286Z,7.72
2023-03-31T09:29:24.574Z,6.63
2023-03-31T09:31:51.838Z,6.70
2023-03-31T09:34:26.747Z,6.70
2023-03-31T09:36:53.944Z,6.57
2023-03-31T09:39:21.401Z,6.57
2023-03-31T09:41:50.539Z,6.38
2023-03-31T09:44:29.133Z,7.10
2023-03-31T09:46:56.699Z,6.63
2023-03-31T09:49:26.910Z,6.47
2023-03-31T09:52:05.157Z,6.60
2023-03-31T09:54:37.067Z,9.30
2023-03-31T09:57:13.262Z,6.95
2023-03-31T09:59:41.378Z,6.75
2023-03-31T10:02:37.948Z,6.80
2023-03-31T10:05:06.838Z,7.10
2023-03-31T10:07:34.903Z,7.30
2023-03-31T10:10:02.821Z,6.88
2023-03-31T10:12:30.741Z,10.35
2023-03-31T10:15:24.260Z,7.88
2023-03-31T10:17:55.446Z,7.05
2023-03-31T10:20:32.275Z,7.35
2023-03-31T10:23:07.207Z,6.57
2023-03-31T10:25:34.739Z,7.85
2023-03-31T10:28:02.774Z,11.48
2023-03-31T10:30:35.392Z,7.63
2023-03-31T10:33:19.182Z,7.38
2023-03-31T10:35:51.320Z,7.13
2023-03-31T10:38:23.493Z,6.88
2023-03-31T10:40:55.480Z,6.43
2023-03-31T10:43:26.396Z,6.55
2023-03-31T10:45:56.329Z,6.75
2023-03-31T10:48:27.912Z,7.50
2023-03-31T10:50:59.422Z,7.22
2023-03-31T10:53:26.582Z,7.00
2023-03-31T10:56:02.765Z,6.75
2023-03-31T10:59:04.543Z,7.40
2023-03-31T11:01:33.015Z,5.82
2023-03-31T11:04:27.166Z,6.28
2023-03-31T11:07:08.776Z,5.82
2023-03-31T11:09:36.607Z,5.47
2023-03-31T11:12:12.966Z,5.90
2023-03-31T11:14:52.413Z,5.60
2023-03-31T11:17:25.765Z,5.47
2023-03-31T11:20:02.299Z,6.15
2023-03-31T11:22:29.424Z,5.07
2023-03-31T11:25:11.970Z,5.85
2023-03-31T11:27:39.232Z,6.28
2023-03-31T11:30:35.626Z,6.30
2023-03-31T11:33:28.331Z,5.38
2023-03-31T11:36:04.344Z,6.00
2023-03-31T11:38:40.863Z,6.97
2023-03-31T11:41:22.791Z,6.07
2023-03-31T11:43:54.793Z,6.45
2023-03-31T11:46:24.662Z,6.25
2023-03-31T11:48:59.194Z,7.20
2023-03-31T11:51:28.708Z,6.45
2023-03-31T11:53:56.980Z,6.32
2023-03-31T11:56:26.453Z,6.78
2023-03-31T11:58:56.330Z,6.85
2023-03-31T12:01:46.555Z,7.72
2023-03-31T12:04:33.673Z,7.03
2023-03-31T12:07:26.681Z,7.03
2023-03-31T12:09:56.644Z,7.35
2023-03-31T12:12:25.821Z,6.45
2023-03-31T12:14:55.952Z,6.93
2023-03-31T12:17:27.692Z,7.65
2023-03-31T12:20:06.831Z,6.93
2023-03-31T12:22:41.045Z,6.82
2023-03-31T12:25:13.003Z,7.20
2023-03-31T12:27:41.714Z,7.30
2023-03-31T12:30:14.007Z,8.20
2023-03-31T12:32:42.692Z,7.70
2023-03-31T12:35:22.541Z,7.57
2023-03-31T12:38:01.388Z,7.45
2023-03-31T12:40:47.415Z,7.25
2023-03-31T12:43:33.162Z,6.80
2023-03-31T12:46:19.330Z,6.38
2023-03-31T12:48:54.146Z,6.50
2023-03-31T12:51:41.378Z,6.38
2023-03-31T12:54:08.556Z,6.68
2023-03-31T12:56:54.328Z,6.93
2023-03-31T12:59:28.634Z,6.43
2023-03-31T13:02:15.899Z,6.22
2023-03-31T13:04:43.429Z,6.35
2023-03-31T13:07:34.510Z,6.53
2023-03-31T13:10:21.757Z,6.38
2023-03-31T13:13:06.222Z,5.88
2023-03-31T13:15:33.618Z,5.60
2023-03-31T13:18:02.461Z,6.53
2023-03-31T13:20:36.070Z,8.77
2023-03-31T13:23:08.023Z,11.55
2023-03-31T13:25:46.085Z,14.40
2023-03-31T13:28:19.067Z,11.52
2023-03-31T13:30:46.785Z,8.93
2023-03-31T13:33:17.775Z,9.77
2023-03-31T13:35:48.123Z,13.77
2023-03-31T13:38:15.289Z,10.95
2023-03-31T13:40:56.547Z,9.70
2023-03-31T13:43:27.221Z,7.82
2023-03-31T13:46:14.044Z,9.18
2023-03-31T13:48:56.733Z,7.28
2023-03-31T13:51:30.171Z,6.93
2023-03-31T13:54:06.786Z,6.90
2023-03-31T13:56:33.890Z,6.25
2023-03-31T13:59:19.274Z,6.10
2023-03-31T14:01:57.358Z,6.28
2023-03-31T14:04:36.423Z,7.20
2023-03-31T14:07:09.391Z,6.20
2023-03-31T14:09:37.701Z,4.43
2023-03-31T14:12:23.121Z,5.63
2023-03-31T14:14:54.656Z,5.50
2023-03-31T14:17:22.948Z,5.47
2023-03-31T14:20:08.432Z,5.35
2023-03-31T14:22:51.150Z,5.05
2023-03-31T14:25:21.096Z,5.72
2023-03-31T14:27:48.170Z,5.63
2023-03-31T14:30:21.448Z,6.40
2023-03-31T14:33:02.137Z,5.95
2023-03-31T14:37:57.385Z,6.20
2023-03-31T14:40:24.792Z,5.75
2023-03-31T14:42:52.267Z,6.55
2023-03-31T14:45:21.953Z,5.97
2023-03-31T14:47:59.729Z,6.47
2023-03-31T14:50:31.343Z,7.00
2023-03-31T14:52:59.604Z,6.68
2023-03-31T14:55:35.846Z,6.50
2023-03-31T14:58:22.809Z,7.88
2023-03-31T15:00:50.011Z,7.13
2023-03-31T15:03:17.760Z,9.10
2023-03-31T15:05:48.236Z,8.30
2023-03-31T15:08:22.982Z,8.40
2023-03-31T15:11:02.343Z,8.70
2023-03-31T15:13:56.657Z,9.07
2023-03-31T15:16:42.292Z,8.90
2023-03-31T15:19:16.386Z,8.98
2023-03-31T15:21:44.257Z,9.80
2023-03-31T15:24:12.549Z,9.35
2023-03-31T15:26:42.489Z,10.15
2023-03-31T15:29:18.024Z,10.70
2023-03-31T15:31:45.514Z,11.45
2023-03-31T15:34:20.309Z,10.32
2023-03-31T15:36:47.737Z,10.00
2023-03-31T15:39:15.217Z,10.18
2023-03-31T15:41:43.030Z,10.57
2023-03-31T15:44:28.955Z,10.88
2023-03-31T15:46:59.195Z,9.27
2023-03-31T15:49:27.149Z,9.57
2023-03-31T15:51:55.788Z,10.20
2023-03-31T15:54:37.159Z,10.13
2023-03-31T15:59:41.470Z,10.70
2023-03-31T16:02:12.080Z,10.95
2023-03-31T16:04:40.622Z,11.30
2023-03-31T16:07:10.318Z,11.10
2023-03-31T16:09:46.684Z,13.40
2023-03-31T16:12:29.009Z,11.85
2023-03-31T16:15:01.068Z,11.68
2023-03-31T16:17:37.194Z,11.23
2023-03-31T16:20:24.924Z,11.63
2023-03-31T16:22:58.817Z,11.05
2023-03-31T16:25:27.527Z,11.23
2023-03-31T16:27:59.848Z,10.82
2023-03-31T16:30:40.470Z,12.30
2023-03-31T16:33:08.947Z,11.35
2023-03-31T16:35:43.880Z,11.60
2023-03-31T16:38:12.011Z,12.27
2023-03-31T16:40:40.521Z,11.23
2023-03-31T16:43:18.433Z,11.02
2023-03-31T16:45:52.496Z,11.45
2023-03-31T16:48:20.708Z,14.60
2023-03-31T16:50:48.775Z,13.57
2023-03-31T16:53:17.521Z,13.10
2023-03-31T16:55:44.657Z,11.90
2023-03-31T16:58:12.019Z,12.65
2023-03-31T17:00:40.609Z,13.40
2023-03-31T17:03:09.039Z,14.73
2023-03-31T17:05:41.211Z,13.82
2023-03-31T17:08:08.702Z,13.10
2023-03-31T17:10:36.095Z,13.60
2023-03-31T17:13:03.583Z,12.90
2023-03-31T17:15:30.722Z,11.88
2023-03-31T17:18:02.138Z,12.48
2023-03-31T17:20:29.381Z,12.30
2023-03-31T17:22:56.720Z,13.68
2023-03-31T17:25:23.894Z,13.55
2023-03-31T17:27:50.995Z,12.45
2023-03-31T17:30:18.144Z,12.45
2023-03-31T17:32:45.595Z,11.75
2023-03-31T17:35:20.305Z,12.05
2023-03-31T17:37:49.894Z,12.75
2023-03-31T17:40:17.226Z,12.68
2023-03-31T17:42:44.789Z,12.15
2023-03-31T17:45:12.920Z,12.90
2023-03-31T17:47:40.155Z,12.50
2023-03-31T17:50:08.787Z,13.75
2023-03-31T17:52:36.689Z,12.70
2023-03-31T17:55:04.668Z,13.63
2023-03-31T17:57:32.320Z,14.18
2023-03-31T17:59:59.647Z,14.52
2023-03-31T18:02:27.374Z,14.25
2023-03-31T18:04:54.713Z,13.90
2023-03-31T18:07:23.474Z,24.80
2023-03-31T18:09:50.647Z,15.57
2023-03-31T18:12:17.912Z,15.20
2023-03-31T18:14:46.180Z,15.70
2023-03-31T18:17:14.982Z,14.93
2023-03-31T18:19:42.880Z,15.80
2023-03-31T18:22:10.253Z,17.10
2023-03-31T18:24:38.518Z,17.33
2023-03-31T18:27:06.423Z,18.58
2023-03-31T18:29:34.045Z,21.08
2023-03-31T18:32:01.916Z,17.55
2023-03-31T18:34:29.280Z,18.38
2023-03-31T18:36:56.527Z,19.67
2023-03-31T18:39:23.847Z,20.63
2023-03-31T18:41:53.124Z,19.25
2023-03-31T18:44:21.848Z,19.10
2023-03-31T18:46:49.728Z,20.33
2023-03-31T18:49:16.932Z,20.88
2023-03-31T18:51:44.192Z,20.40
2023-03-31T18:54:12.029Z,20.60
2023-03-31T18:56:39.151Z,21.90
2023-03-31T18:59:06.286Z,21.80
2023-03-31T19:01:35.113Z,21.23
2023-03-31T19:04:02.239Z,23.35
2023-03-31T19:06:29.434Z,24.55
2023-03-31T19:08:57.042Z,22.92
2023-03-31T19:11:24.182Z,23.02
2023-03-31T19:13:52.882Z,25.65
2023-03-31T19:16:20.079Z,24.50
2023-03-31T19:18:47.398Z,24.85
2023-03-31T19:21:14.783Z,25.58
2023-03-31T19:23:41.968Z,24.90
2023-03-31T19:26:12.157Z,26.60
2023-03-31T19:28:39.365Z,26.70
2023-03-31T19:31:06.897Z,26.33
2023-03-31T19:33:34.112Z,26.90
2023-03-31T19:36:01.315Z,27.50
2023-03-31T19:38:31.993Z,27.55
2023-03-31T19:41:00.207Z,27.70
2023-03-31T19:43:29.393Z,25.77
2023-03-31T19:45:57.993Z,27.33
2023-03-31T19:48:26.544Z,27.70
2023-03-31T19:50:59.443Z,26.85
2023-03-31T19:53:26.964Z,26.65
2023-03-31T19:56:02.913Z,24.38
2023-03-31T19:58:30.395Z,26.63
2023-03-31T20:00:58.185Z,26.42
2023-03-31T20:03:27.350Z,25.90
2023-03-31T20:06:04.792Z,26.58
2023-03-31T20:08:32.468Z,26.63
2023-03-31T20:11:00.629Z,26.55
2023-03-31T20:13:28.058Z,26.98
2023-03-31T20:15:59.035Z,26.63
2023-03-31T20:18:27.654Z,24.95
2023-03-31T20:21:05.663Z,26.30
2023-03-31T20:23:33.324Z,26.08
2023-03-31T20:26:01.344Z,27.27
2023-03-31T20:28:29.099Z,25.15
2023-03-31T20:30:56.359Z,26.52
2023-03-31T20:33:24.591Z,24.90
2023-03-31T20:35:59.973Z,26.95
2023-03-31T20:38:28.209Z,25.00
2023-03-31T20:40:55.405Z,25.42
2023-03-31T20:43:22.760Z,25.30
2023-03-31T20:45:54.802Z,27.08
2023-03-31T20:48:21.928Z,24.63
2023-03-31T20:50:49.103Z,25.80
2023-03-31T20:53:16.657Z,25.25
2023-03-31T20:55:43.800Z,24.20
2023-03-31T20:58:11.076Z,23.48
2023-03-31T21:00:38.485Z,24.13
2023-03-31T21:03:05.732Z,23.05
2023-03-31T21:05:33.110Z,24.83
2023-03-31T21:08:00.607Z,23.95
2023-03-31T21:10:27.733Z,23.85
2023-03-31T21:12:55.130Z,25.35
2023-03-31T21:15:22.376Z,24.65
2023-03-31T21:17:49.560Z,25.08
2023-03-31T21:20:16.793Z,24.77
2023-03-31T21:22:43.919Z,24.85
2023-03-31T21:25:11.473Z,25.88
2023-03-31T21:27:38.738Z,24.58
2023-03-31T21:30:06.187Z,24.30
2023-03-31T21:32:33.821Z,24.17
2023-03-31T21:35:01.966Z,24.40
2023-03-31T21:37:29.769Z,23.38
2023-03-31T21:39:56.937Z,23.80
2023-03-31T21:42:24.756Z,24.02
2023-03-31T21:44:58.666Z,24.65
2023-03-31T21:47:26.653Z,24.63
2023-03-31T21:49:53.919Z,25.00
2023-03-31T21:52:21.217Z,24.50
2023-03-31T21:54:48.389Z,25.40
2023-03-31T21:57:15.787Z,24.23
2023-03-31T21:59:42.971Z,25.65
2023-03-31T22:02:10.396Z,25.30
2023-03-31T22:04:37.859Z,27.13
2023-03-31T22:07:04.996Z,27.88
2023-03-31T22:09:32.272Z,27.63
2023-03-31T22:11:59.391Z,27.38
2023-03-31T22:14:26.549Z,28.70
2023-03-31T22:16:53.745Z,27.20
2023-03-31T22:19:20.898Z,28.38
2023-03-31T22:21:48.495Z,27.63
2023-03-31T22:24:15.786Z,27.50
2023-03-31T22:26:42.974Z,27.88
2023-03-31T22:29:13.292Z,27.85
2023-03-31T22:31:40.631Z,28.00
2023-03-31T22:34:07.799Z,27.42
2023-03-31T22:36:34.956Z,28.25
2023-03-31T22:39:02.143Z,26.88
2023-03-31T22:41:29.268Z,29.15
2023-03-31T22:43:56.450Z,28.92
2023-03-31T22:46:24.305Z,28.95
2023-03-31T22:48:51.531Z,30.20
2023-03-31T22:51:18.938Z,29.17
2023-03-31T22:53:50.117Z,29.15
2023-03-31T22:56:17.229Z,29.38
2023-03-31T22:58:44.446Z,28.27
2023-03-31T23:01:15.992Z,31.48
2023-03-31T23:03:43.901Z,29.42
2023-03-31T23:06:11.396Z,30.02
2023-03-31T23:08:39.100Z,31.15
2023-03-31T23:11:08.155Z,31.27
2023-03-31T23:13:36.041Z,30.90
2023-03-31T23:16:04.219Z,32.08
2023-03-31T23:18:31.444Z,30.50
2023-03-31T23:20:58.638Z,31.58
2023-03-31T23:23:26.209Z,31.40
2023-03-31T23:25:53.357Z,29.52
2023-03-31T23:28:20.493Z,30.67
2023-03-31T23:30:53.119Z,31.33
2023-03-31T23:33:20.363Z,31.83
2023-03-31T23:35:48.955Z,31.30
2023-03-31T23:38:16.553Z,29.73
2023-03-31T23:40:44.711Z,29.77
2023-03-31T23:43:11.823Z,32.03
2023-03-31T23:45:39.039Z,30.38
2023-03-31T23:48:06.229Z,29.27
2023-03-31T23:50:34.080Z,29.02
2023-03-31T23:53:02.190Z,29.30
2023-03-31T23:55:29.530Z,29.95
2023-03-31T23:57:57.578Z,29.40
